Whitefield, NH (03598)

12:44 PM EST on February 07, 2016 (GMT -0500)
Kilkenny View Rd | | Change Station
CLOSE
Current Station
Personal Weather Station
Location: Jefferson, NH
Elevation: 1093 ft
Nearby Weather Stations

Elev 1093 ft 44.44 °N, 71.51 °W | Updated 11 seconds ago

Overcast
Overcast
33.7 °F
Feels Like 34 °F
N
0.8
Wind Variable Wind from NNE
Gusts 4.0 mph

Today
High -- | Low -- °F
--% Chance of Precip.
Yesterday
High -- | Low -- °F
Precip. -- in
Pressure 30.08 in
Visibility 10.0 miles
Clouds Scattered Clouds 2700 ft
Scattered Clouds 3700 ft
Overcast 4600 ft
Windchill 34 °F
Dew Point 24 °F
Humidity 66%
Rainfall 0.00 in
Snow Depth Not available.
6:58 AM 5:03 PM
Waning Crescent, 1% visible
SPECI KHIE 071708Z AUTO 03006KT 10SM SCT027 SCT037 OVC046 01/M04 A3008 RMK AO2 T00111044
Pressure 30.08 in
Visibility 10.0 miles
Clouds Scattered Clouds 2700 ft
Scattered Clouds 3700 ft
Overcast 4600 ft
Windchill 34 °F
Dew Point 24 °F
Humidity 66%
Rainfall 0.00 in
Snow Depth Not available.
6:58 AM 5:03 PM
Waning Crescent, 1% visible
SPECI KHIE 071708Z AUTO 03006KT 10SM SCT027 SCT037 OVC046 01/M04 A3008 RMK AO2 T00111044

10-Day Weather Forecast

Almanac

Astronomy

Feb. 07, 2016 Rise Set
Actual Time
Civil Twilight
Nautical Twilight
Astronomical Twilight
Moon
Length of Visible Light
Length of Day
Tomorrow will be .
, % of the Moon is Illuminated

Today's Extremes

State Highs State Lows

Community

WunderPhotos

Upload Photos

1,891,248 photos uploaded!

WunderBlog® & News

Nearby

Air Quality

  Air Quality AQ Index Pollutant
Not available.

Snow Depth

Station Depth Elevation

Earthquake Activity

City Distance Mag. Time & Date
Minimum magnitude displayed is 2.5.

Coastal Water Temperatures

Place Temperature

Stations

Nearby Weather Stations

Station Location Temp. Windchill Dew Point Humidity Wind Precip. Elev Updated Type
                   

Watches & Warnings

There are currently no watches in effect.